Time;durP1;ratioP1;P1;durP2;ratioP2;P2;SDS_P1;SDS_P2;PMS_P1;PMS_P2;Temp;Humidity;BMP_temperature;BMP_pressure;BME280_temperature;BME280_humidity;BME280_pressure;Samples;Min_cycle;Max_cycle;Signal;HPM_P1;HPM_P2
2023/05/17 00:01:55;;;;;;;6.60;3.90;;;;;;;17.95;48.45;100558.27;108140;1254;72078;-85
2023/05/17 00:04:22;;;;;;;7.40;4.10;;;;;;;17.94;48.61;100558.13;108238;1254;61301;-84
2023/05/17 00:06:49;;;;;;;5.80;4.10;;;;;;;17.96;48.78;100559.46;108173;1254;60518;-85
2023/05/17 00:09:16;;;;;;;5.70;4.10;;;;;;;17.96;48.60;100560.23;108117;1252;74951;-85
2023/05/17 00:11:44;;;;;;;7.70;4.40;;;;;;;17.99;48.63;100561.23;108149;1254;73919;-85
2023/05/17 00:14:12;;;;;;;9.60;4.70;;;;;;;18.06;48.56;100564.43;108165;1253;72247;-85
2023/05/17 00:16:39;;;;;;;4.60;3.70;;;;;;;18.09;48.50;100563.91;108168;1254;61467;-85
2023/05/17 00:19:07;;;;;;;6.10;3.90;;;;;;;18.11;48.34;100566.70;108195;1253;60354;-85
2023/05/17 00:21:34;;;;;;;5.60;4.10;;;;;;;18.12;48.40;100569.31;108185;1253;74839;-85
2023/05/17 00:24:01;;;;;;;6.20;3.90;;;;;;;18.16;48.40;100571.70;108135;1254;72094;-84
2023/05/17 00:26:28;;;;;;;5.80;4.00;;;;;;;18.17;48.30;100572.56;108114;1254;73870;-85
2023/05/17 00:28:55;;;;;;;5.00;4.00;;;;;;;18.20;48.22;100575.94;108106;1253;60511;-85
2023/05/17 00:31:22;;;;;;;7.70;4.80;;;;;;;18.23;48.11;100577.25;108258;1253;61286;-85
2023/05/17 00:33:50;;;;;;;5.90;4.10;;;;;;;18.24;48.20;100577.23;108307;1253;74783;-85
2023/05/17 00:36:17;;;;;;;6.00;4.00;;;;;;;18.24;48.21;100576.05;108332;1254;72508;-85
2023/05/17 00:38:44;;;;;;;5.80;4.00;;;;;;;18.25;48.21;100576.17;108276;1256;71903;-85
2023/05/17 00:41:11;;;;;;;6.50;4.00;;;;;;;18.26;48.15;100578.54;108277;1255;62136;-84
2023/05/17 00:43:38;;;;;;;7.50;4.10;;;;;;;18.27;48.28;100579.81;108285;1254;61293;-86
2023/05/17 00:46:06;;;;;;;6.60;4.10;;;;;;;18.30;48.10;100576.79;108337;1256;74864;-85
2023/05/17 00:48:36;;;;;;;6.50;4.00;;;;;;;18.31;48.08;100577.72;108279;1256;75086;-85
2023/05/17 00:51:03;;;;;;;6.60;4.00;;;;;;;18.34;48.14;100576.30;108334;1254;72562;-86
2023/05/17 00:53:30;;;;;;;6.50;3.90;;;;;;;18.36;48.09;100578.04;108104;1254;60914;-86
2023/05/17 00:55:57;;;;;;;6.30;4.00;;;;;;;18.38;48.17;100577.54;108264;1253;59907;-85
2023/05/17 00:58:25;;;;;;;5.90;4.20;;;;;;;18.40;48.17;100579.08;108134;1254;73669;-86
2023/05/17 01:00:52;;;;;;;7.10;4.20;;;;;;;18.41;48.19;100581.09;108247;1254;72852;-85
2023/05/17 01:03:21;;;;;;;6.90;4.30;;;;;;;18.42;48.20;100581.13;108179;1252;72631;-85
2023/05/17 01:05:51;;;;;;;8.10;4.30;;;;;;;18.42;48.11;100581.58;108336;1253;60328;-85
2023/05/17 01:08:17;;;;;;;6.80;4.10;;;;;;;18.42;48.12;100582.58;108367;1254;60229;-85
2023/05/17 01:10:57;;;;;;;5.60;4.10;;;;;;;18.41;48.20;100585.64;108264;1254;73499;-86
2023/05/17 01:13:32;;;;;;;5.80;4.10;;;;;;;18.40;48.39;100579.34;108295;1254;73366;-87
2023/05/17 01:16:07;;;;;;;6.80;4.30;;;;;;;18.38;48.37;100579.70;108199;1255;73736;-87
2023/05/17 01:18:38;;;;;;;5.80;4.30;;;;;;;18.37;48.39;100580.34;108263;1254;60680;-84
2023/05/17 01:21:15;;;;;;;7.90;4.50;;;;;;;18.36;48.40;100578.52;108378;1253;60677;-85
2023/05/17 01:23:53;;;;;;;6.40;4.30;;;;;;;18.35;48.36;100575.19;108327;1254;74355;-85
2023/05/17 01:26:49;;;;;;;7.20;4.20;;;;;;;18.34;48.56;100580.57;108128;1254;188634;-85
2023/05/17 01:29:16;;;;;;;7.40;4.20;;;;;;;18.34;48.84;100580.48;108138;1254;73545;-85
2023/05/17 01:31:43;;;;;;;8.70;4.70;;;;;;;18.33;48.70;100585.08;108231;1253;61401;-85
2023/05/17 01:34:10;;;;;;;6.70;4.20;;;;;;;18.33;48.75;100586.16;108268;1253;60996;-85
2023/05/17 01:36:41;;;;;;;7.30;4.30;;;;;;;18.34;48.72;100579.55;108354;1254;74526;-85
2023/05/17 01:39:08;;;;;;;6.70;4.30;;;;;;;18.34;48.69;100579.10;108432;1254;73169;-86
2023/05/17 01:41:41;;;;;;;8.70;4.90;;;;;;;18.33;48.68;100582.00;108332;1253;73346;-85
2023/05/17 01:44:25;;;;;;;8.20;4.40;;;;;;;18.31;48.77;100580.64;108315;1254;60399;-85
2023/05/17 01:46:57;;;;;;;7.90;4.40;;;;;;;18.27;48.72;100583.00;108228;1253;60672;-85
2023/05/17 01:49:29;;;;;;;7.00;4.20;;;;;;;18.20;48.92;100583.82;108396;1253;74739;-86
2023/05/17 01:51:57;;;;;;;;;;;;;;;18.13;49.01;100581.63;108246;1254;72062;-87
2023/05/17 01:54:30;;;;;;;5.40;4.30;;;;;;;18.07;49.18;100581.77;108421;1253;73504;-86
2023/05/17 01:56:57;;;;;;;5.80;4.40;;;;;;;18.01;49.18;100581.58;108238;1254;62756;-86
2023/05/17 01:59:24;;;;;;;7.40;4.50;;;;;;;17.96;49.34;100581.25;108228;1254;61658;-86
2023/05/17 02:01:54;;;;;;;5.50;4.00;;;;;;;17.93;49.39;100582.08;108105;1254;74864;-86
2023/05/17 02:04:21;;;;;;;8.00;4.70;;;;;;;17.90;49.64;100581.98;108320;1254;73698;-85
2023/05/17 02:06:48;;;;;;;9.20;4.30;;;;;;;17.87;49.71;100585.09;108352;1254;72859;-86
2023/05/17 02:09:16;;;;;;;5.70;4.40;;;;;;;17.83;49.91;100588.64;108305;1253;60533;-86
2023/05/17 02:11:44;;;;;;;7.70;4.40;;;;;;;17.79;50.11;100585.90;108193;1254;60517;-85
2023/05/17 02:14:11;;;;;;;8.00;4.90;;;;;;;17.75;50.48;100589.20;108255;1256;74080;-85
2023/05/17 02:16:41;;;;;;;6.90;4.30;;;;;;;17.70;50.46;100590.14;108230;1254;72951;-86
2023/05/17 02:19:08;;;;;;;6.80;4.30;;;;;;;17.64;50.58;100592.86;108233;1254;73699;-86
2023/05/17 02:21:35;;;;;;;6.40;4.10;;;;;;;17.62;50.71;100595.05;108307;1254;61656;-86
2023/05/17 02:24:02;;;;;;;7.80;4.60;;;;;;;17.61;50.82;100593.30;108313;1254;59648;-86
2023/05/17 02:26:30;;;;;;;5.90;4.00;;;;;;;17.31;51.45;100592.04;108336;1254;74562;-85
2023/05/17 02:41:11;;;;;;;7.80;4.70;;;;;;;17.81;51.07;100599.89;105995;1280;613821;-84
2023/05/17 02:43:38;;;;;;;7.90;4.40;;;;;;;18.17;50.27;100600.93;107325;1265;139485;-85
2023/05/17 02:46:05;;;;;;;6.30;4.60;;;;;;;18.20;50.30;100606.65;107449;1264;58700;-85
2023/05/17 02:48:32;;;;;;;6.10;4.70;;;;;;;18.23;50.12;100609.50;107404;1264;71026;-84
2023/05/17 02:50:59;;;;;;;6.90;4.20;;;;;;;18.25;50.04;100616.70;107446;1264;71415;-84
2023/05/17 02:53:26;;;;;;;6.50;4.40;;;;;;;18.24;50.07;100617.37;107391;1263;73886;-84
2023/05/17 02:55:56;;;;;;;5.80;4.10;;;;;;;18.21;50.18;100616.89;107424;1264;60839;-84
2023/05/17 02:58:24;;;;;;;6.20;4.50;;;;;;;18.19;50.02;100614.94;107854;1257;59541;-85
2023/05/17 03:00:51;;;;;;;6.60;4.50;;;;;;;18.16;50.24;100613.80;107684;1259;72490;-84
2023/05/17 03:03:24;;;;;;;7.20;4.40;;;;;;;18.16;50.33;100609.73;89486;1261;10002908;-86
2023/05/17 03:05:52;;;;;;;8.70;4.90;;;;;;;18.15;50.31;100611.00;107707;1258;60331;-85
2023/05/17 03:08:20;;;;;;;6.90;4.50;;;;;;;18.13;50.48;100614.27;107578;1260;59500;-85
2023/05/17 03:10:47;;;;;;;5.80;4.60;;;;;;;18.12;50.68;100613.80;107549;1260;59370;-86
2023/05/17 03:13:15;;;;;;;8.30;4.80;;;;;;;18.12;50.73;100616.56;107615;1259;74839;-84
2023/05/17 03:15:42;;;;;;;8.10;4.50;;;;;;;18.13;50.85;100615.52;107559;1259;61785;-84
2023/05/17 03:18:09;;;;;;;8.60;4.70;;;;;;;18.14;50.81;100618.31;107621;1258;62454;-85
2023/05/17 03:20:38;;;;;;;5.90;4.50;;;;;;;18.14;50.79;100617.16;107511;1260;72289;-85
2023/05/17 03:23:05;;;;;;;7.40;4.80;;;;;;;18.16;50.77;100616.91;107530;1257;73027;-85
2023/05/17 03:25:37;;;;;;;5.70;4.20;;;;;;;18.17;50.74;100624.56;107688;1260;74692;-85
2023/05/17 03:28:04;;;;;;;8.50;4.50;;;;;;;18.19;50.61;100627.50;107656;1257;63075;-85
2023/05/17 03:30:32;;;;;;;7.60;4.50;;;;;;;18.23;50.46;100629.07;107882;1260;61534;-85
2023/05/17 03:32:59;;;;;;;9.00;4.70;;;;;;;18.28;50.28;100631.70;107653;1260;75333;-85
2023/05/17 03:35:26;;;;;;;6.10;4.80;;;;;;;18.36;50.04;100637.94;107756;1260;75025;-85
2023/05/17 03:37:55;;;;;;;8.50;4.60;;;;;;;18.53;49.67;100639.23;107887;1259;73021;-85
2023/05/17 03:40:22;;;;;;;5.20;4.20;;;;;;;18.61;49.39;100641.96;107870;1259;60561;-84
2023/05/17 03:42:50;;;;;;;7.10;4.40;;;;;;;18.56;49.45;100647.05;107654;1258;61501;-84
2023/05/17 03:45:18;;;;;;;7.50;4.70;;;;;;;18.54;49.28;100646.02;107676;1259;74210;-85
2023/05/17 03:47:45;;;;;;;5.80;4.70;;;;;;;18.58;49.32;100648.51;107683;1260;72479;-85
2023/05/17 03:50:13;;;;;;;7.00;4.60;;;;;;;18.59;49.35;100648.98;107787;1260;71884;-84
2023/05/17 03:52:40;;;;;;;6.60;4.30;;;;;;;18.62;49.10;100652.16;107710;1258;61970;-84
2023/05/17 03:55:09;;;;;;;7.50;4.80;;;;;;;18.63;49.32;100651.05;107717;1259;60687;-84
2023/05/17 03:57:36;;;;;;;7.50;5.00;;;;;;;18.68;49.33;100656.05;107855;1260;74704;-84
2023/05/17 04:00:10;;;;;;;11.30;4.70;;;;;;;18.76;49.35;100656.36;108427;1261;72151;-84
2023/05/17 04:02:41;;;;;;;7.80;4.90;;;;;;;18.82;49.36;100655.36;108495;1257;72061;-84
2023/05/17 04:05:08;;;;;;;7.40;4.80;;;;;;;18.88;49.28;100663.96;108331;1256;61343;-83
2023/05/17 04:07:35;;;;;;;6.10;4.00;;;;;;;18.99;49.15;100662.39;107890;1262;61497;-85
2023/05/17 04:10:03;;;;;;;8.60;4.50;;;;;;;19.06;49.06;100666.15;107771;1256;75189;-86
2023/05/17 04:12:30;;;;;;;6.50;4.20;;;;;;;19.16;48.80;100663.47;107939;1257;74867;-84
2023/05/17 04:14:57;;;;;;;6.40;4.40;;;;;;;19.25;48.66;100664.61;107861;1257;73778;-85
2023/05/17 04:17:25;;;;;;;6.60;4.40;;;;;;;19.33;48.45;100666.70;107838;1257;61357;-84
2023/05/17 04:19:52;;;;;;;7.60;4.60;;;;;;;19.38;48.33;100668.34;107888;1256;62324;-84
2023/05/17 04:22:20;;;;;;;5.60;4.50;;;;;;;19.43;48.20;100671.67;107757;1257;72118;-84
2023/05/17 04:24:48;;;;;;;8.90;4.50;;;;;;;19.48;48.15;100670.92;107806;1257;70935;-86
2023/05/17 04:27:15;;;;;;;5.90;4.40;;;;;;;19.53;47.96;100675.02;107913;1256;74976;-84
2023/05/17 04:29:43;;;;;;;9.30;4.20;;;;;;;19.57;47.89;100672.89;107775;1256;61466;-84
2023/05/17 04:32:10;;;;;;;7.10;4.60;;;;;;;19.63;47.84;100673.86;107788;1257;62671;-84
2023/05/17 04:34:37;;;;;;;7.20;4.50;;;;;;;19.80;47.70;100675.78;107760;1257;71575;-84
2023/05/17 04:37:04;;;;;;;5.30;4.10;;;;;;;19.91;47.31;100677.61;107761;1257;72571;-84
2023/05/17 04:39:32;;;;;;;6.60;4.40;;;;;;;19.98;47.23;100677.82;107687;1256;73631;-83
2023/05/17 04:41:59;;;;;;;5.80;4.40;;;;;;;19.94;47.41;100677.87;107773;1257;59525;-83
2023/05/17 04:44:26;;;;;;;5.60;4.30;;;;;;;19.99;47.52;100678.64;107800;1260;59871;-84
2023/05/17 04:46:54;;;;;;;6.30;4.40;;;;;;;20.07;47.37;100683.66;107805;1256;74094;-84
2023/05/17 04:49:23;;;;;;;6.00;4.60;;;;;;;20.16;47.31;100688.98;107719;1257;74608;-84
2023/05/17 04:51:51;;;;;;;7.00;3.90;;;;;;;20.23;47.18;100689.39;107771;1257;73444;-84
2023/05/17 04:54:18;;;;;;;8.10;4.40;;;;;;;20.30;47.06;100690.55;107794;1257;62928;-84
2023/05/17 04:56:45;;;;;;;8.30;3.90;;;;;;;20.36;46.96;100690.89;107733;1263;60566;-84
2023/05/17 04:59:17;;;;;;;6.00;3.90;;;;;;;20.43;46.84;100697.15;107798;1257;75287;-84
2023/05/17 05:01:44;;;;;;;5.80;4.10;;;;;;;20.50;46.60;100698.63;107871;1257;74235;-84
2023/05/17 05:04:11;;;;;;;7.60;4.50;;;;;;;20.57;46.54;100700.05;107814;1257;71352;-85
2023/05/17 05:06:40;;;;;;;6.00;4.30;;;;;;;20.64;46.42;100704.32;107996;1257;62329;-85
2023/05/17 05:09:08;;;;;;;8.20;4.60;;;;;;;20.71;46.44;100703.83;107931;1257;59538;-84
2023/05/17 05:11:36;;;;;;;7.70;4.60;;;;;;;20.79;46.40;100703.95;108033;1256;73621;-83
2023/05/17 05:14:04;;;;;;;8.60;4.60;;;;;;;20.83;46.37;100699.02;108125;1257;72880;-86
2023/05/17 05:16:31;;;;;;;6.30;3.90;;;;;;;20.87;46.13;100701.98;108046;1257;73745;-85
2023/05/17 05:18:58;;;;;;;6.60;4.10;;;;;;;20.99;46.02;100702.34;108047;1259;59830;-85
2023/05/17 05:21:26;;;;;;;7.50;4.00;;;;;;;21.02;46.20;100704.55;108020;1256;60502;-84
2023/05/17 05:23:53;;;;;;;7.70;4.50;;;;;;;21.08;46.28;100705.73;107954;1256;73144;-84
2023/05/17 05:26:20;;;;;;;8.30;4.50;;;;;;;21.19;46.11;100705.55;107910;1262;71287;-83
2023/05/17 05:28:48;;;;;;;6.20;4.10;;;;;;;21.28;46.02;100701.98;108047;1256;72945;-84
2023/05/17 05:31:15;;;;;;;7.00;4.20;;;;;;;21.39;46.08;100707.25;107826;1257;61458;-84
2023/05/17 05:33:48;;;;;;;6.70;4.60;;;;;;;21.48;45.87;100706.08;107937;1257;59527;-85
2023/05/17 05:36:16;;;;;;;5.30;3.90;;;;;;;21.53;45.86;100711.25;107938;1256;74603;-84
2023/05/17 05:38:43;;;;;;;6.10;3.90;;;;;;;21.61;45.97;100708.63;107910;1257;71999;-85
2023/05/17 05:41:10;;;;;;;6.60;3.80;;;;;;;21.67;45.80;100711.98;107892;1256;75025;-85
2023/05/17 05:43:40;;;;;;;6.50;3.80;;;;;;;21.74;45.61;100717.45;107692;1263;60739;-84
2023/05/17 05:46:07;;;;;;;5.30;3.90;;;;;;;21.79;45.48;100714.92;107790;1257;60663;-84
2023/05/17 05:48:38;;;;;;;5.60;4.20;;;;;;;21.88;45.58;100721.50;107681;1257;72092;-85
2023/05/17 05:51:06;;;;;;;8.10;4.00;;;;;;;21.99;45.37;100721.30;108157;1258;72006;-85
2023/05/17 05:53:35;;;;;;;6.50;4.00;;;;;;;22.12;45.32;100723.27;108234;1258;75275;-84
2023/05/17 05:56:03;;;;;;;5.90;4.10;;;;;;;22.22;45.24;100724.54;108206;1253;60956;-85
2023/05/17 05:58:30;;;;;;;7.70;4.30;;;;;;;22.34;44.95;100723.33;108162;1254;62152;-84
2023/05/17 06:00:59;;;;;;;6.60;4.10;;;;;;;22.46;44.86;100724.10;108147;1254;72694;-84
2023/05/17 06:03:26;;;;;;;9.10;4.00;;;;;;;22.58;44.53;100726.15;108129;1254;72927;-85
2023/05/17 06:05:54;;;;;;;7.90;4.00;;;;;;;22.62;44.28;100724.82;108235;1253;73182;-84
2023/05/17 06:08:21;;;;;;;7.80;4.00;;;;;;;22.72;44.33;100721.59;108188;1254;59727;-84
2023/05/17 06:10:48;;;;;;;9.60;4.00;;;;;;;22.86;44.15;100726.92;108219;1253;60195;-84
2023/05/17 06:13:15;;;;;;;7.50;3.90;;;;;;;23.01;43.79;100726.37;108227;1253;71882;-87
2023/05/17 06:15:42;;;;;;;6.50;3.90;;;;;;;23.15;43.27;100728.88;108212;1254;73340;-85
2023/05/17 06:18:09;;;;;;;9.50;4.70;;;;;;;23.30;42.70;100725.40;108234;1254;72035;-85
2023/05/17 06:20:36;;;;;;;7.30;4.30;;;;;;;23.52;42.10;100729.09;108229;1254;61268;-85
2023/05/17 06:23:04;;;;;;;5.80;3.80;;;;;;;23.65;41.52;100731.30;108292;1253;62451;-87
2023/05/17 06:25:31;;;;;;;13.00;4.30;;;;;;;23.77;41.19;100728.66;108298;1253;72936;-85
2023/05/17 06:28:01;;;;;;;11.30;4.20;;;;;;;23.81;41.16;100730.98;108341;1253;74931;-86
2023/05/17 06:30:29;;;;;;;11.20;4.40;;;;;;;23.94;41.26;100729.96;108146;1253;72683;-85
2023/05/17 06:32:57;;;;;;;9.20;3.80;;;;;;;24.08;40.88;100732.52;108319;1253;61139;-85
2023/05/17 06:35:24;;;;;;;7.90;3.60;;;;;;;24.23;40.62;100737.29;108172;1254;62090;-86
2023/05/17 06:37:52;;;;;;;9.60;4.30;;;;;;;24.32;40.08;100741.87;108201;1254;74103;-87
2023/05/17 06:40:19;;;;;;;6.70;3.40;;;;;;;24.46;39.43;100743.16;108208;1254;73734;-87
2023/05/17 06:42:46;;;;;;;7.60;3.70;;;;;;;24.61;38.75;100744.14;108215;1256;74436;-86
2023/05/17 06:45:13;;;;;;;7.40;3.90;;;;;;;24.74;38.39;100742.00;108193;1258;59503;-84
2023/05/17 06:47:40;;;;;;;5.70;3.70;;;;;;;24.89;37.79;100741.77;108191;1253;62054;-87
2023/05/17 06:50:08;;;;;;;6.40;3.60;;;;;;;25.04;37.37;100740.21;108156;1254;74734;-85
2023/05/17 06:52:35;;;;;;;8.20;3.90;;;;;;;25.18;37.04;100739.84;108011;1254;73706;-85
2023/05/17 06:55:02;;;;;;;9.50;4.00;;;;;;;25.30;36.39;100741.55;108124;1254;73309;-85
2023/05/17 06:57:29;;;;;;;7.20;4.00;;;;;;;25.40;36.38;100742.56;108171;1252;61472;-85
2023/05/17 06:59:56;;;;;;;8.90;3.90;;;;;;;25.47;35.76;100740.70;108103;1254;61416;-86
2023/05/17 07:02:25;;;;;;;12.20;4.60;;;;;;;25.49;35.40;100741.24;108244;1253;72219;-87
2023/05/17 07:04:52;;;;;;;8.50;3.90;;;;;;;25.58;35.46;100733.95;108155;1259;71631;-84
2023/05/17 07:07:20;;;;;;;8.20;3.60;;;;;;;25.73;35.28;100735.95;108168;1253;73522;-85
2023/05/17 07:09:47;;;;;;;9.20;4.00;;;;;;;25.91;34.67;100733.73;108145;1253;62652;-85
2023/05/17 07:12:14;;;;;;;9.00;4.60;;;;;;;26.04;34.93;100736.91;108203;1254;61106;-85
2023/05/17 07:14:41;;;;;;;7.80;4.00;;;;;;;26.20;34.48;100733.90;108115;1253;76485;-85
2023/05/17 07:17:10;;;;;;;6.20;4.00;;;;;;;26.33;33.88;100732.14;108190;1254;73547;-85
2023/05/17 07:19:37;;;;;;;6.50;3.70;;;;;;;26.47;33.55;100731.80;108094;1253;73572;-86
2023/05/17 07:22:05;;;;;;;11.10;4.30;;;;;;;26.60;33.60;100732.39;108211;1254;60421;-85
2023/05/17 07:24:34;;;;;;;6.30;3.70;;;;;;;26.74;33.29;100731.64;108120;1253;61445;-86
2023/05/17 07:27:01;;;;;;;9.30;4.00;;;;;;;26.92;32.64;100732.84;108217;1252;72782;-85
2023/05/17 07:29:28;;;;;;;11.30;4.00;;;;;;;27.01;32.66;100732.91;108212;1253;72013;-86
2023/05/17 07:31:55;;;;;;;10.40;4.20;;;;;;;27.09;32.52;100737.22;108212;1253;72565;-84
2023/05/17 07:34:23;;;;;;;13.50;4.20;;;;;;;27.21;32.77;100738.40;108135;1252;60303;-86
2023/05/17 07:36:50;;;;;;;5.20;3.20;;;;;;;27.35;32.89;100739.58;108197;1254;60693;-85
2023/05/17 07:39:18;;;;;;;24.80;5.40;;;;;;;27.52;32.54;100739.38;108154;1253;73849;-85
2023/05/17 07:41:45;;;;;;;12.70;4.10;;;;;;;27.66;32.81;100742.90;108200;1253;73251;-86
2023/05/17 07:44:13;;;;;;;391.30;28.30;;;;;;;27.67;32.21;100739.70;108217;1254;72684;-83
2023/05/17 07:46:40;;;;;;;63.10;7.60;;;;;;;27.61;32.01;100740.14;108228;1258;61331;-88
2023/05/17 07:49:07;;;;;;;8.80;3.80;;;;;;;27.64;32.22;100739.55;108245;1254;60336;-84
2023/05/17 07:51:35;;;;;;;7.30;3.30;;;;;;;27.62;31.83;100740.40;108191;1254;73780;-85
2023/05/17 07:54:03;;;;;;;10.10;3.40;;;;;;;27.56;31.69;100741.32;108271;1254;73334;-86
2023/05/17 07:56:32;;;;;;;9.00;3.10;;;;;;;27.53;31.52;100743.79;108230;1254;71259;-86
2023/05/17 07:58:59;;;;;;;9.90;3.70;;;;;;;27.62;31.46;100740.09;108142;1253;61400;-85
2023/05/17 08:01:26;;;;;;;7.70;3.60;;;;;;;27.73;31.63;100743.38;108163;1253;59942;-85
2023/05/17 08:03:54;;;;;;;8.80;3.40;;;;;;;27.76;31.42;100741.50;108254;1254;75941;-86
2023/05/17 08:06:21;;;;;;;16.20;3.30;;;;;;;27.88;30.49;100738.55;108227;1254;72824;-84
2023/05/17 08:08:48;;;;;;;6.00;3.20;;;;;;;27.98;30.71;100741.73;108259;1254;66041;-84
2023/05/17 08:11:15;;;;;;;9.90;3.10;;;;;;;28.02;30.35;100745.72;108169;1253;61395;-85
2023/05/17 08:13:43;;;;;;;9.00;3.30;;;;;;;28.05;30.25;100747.88;108173;1254;61192;-85
2023/05/17 08:16:11;;;;;;;7.70;3.10;;;;;;;28.08;29.69;100745.48;108136;1258;76384;-85
2023/05/17 08:18:41;;;;;;;6.90;2.80;;;;;;;28.23;29.73;100746.32;108156;1253;73231;-84
2023/05/17 08:21:10;;;;;;;9.80;3.50;;;;;;;28.35;29.46;100747.64;108120;1254;73077;-85
2023/05/17 08:23:38;;;;;;;7.50;2.80;;;;;;;28.37;29.42;100746.90;108211;1253;59631;-84
2023/05/17 08:26:05;;;;;;;4.80;2.70;;;;;;;28.47;29.25;100749.78;108242;1252;60296;-84
2023/05/17 08:28:32;;;;;;;10.00;3.20;;;;;;;28.55;29.35;100748.86;108204;1254;73090;-85
2023/05/17 08:31:00;;;;;;;6.00;3.20;;;;;;;28.63;29.18;100744.15;108196;1254;66083;-84
2023/05/17 08:33:27;;;;;;;8.80;3.10;;;;;;;28.71;28.88;100744.09;108173;1254;71640;-83
2023/05/17 08:35:56;;;;;;;10.80;3.20;;;;;;;28.71;28.85;100746.45;108180;1254;60545;-84
2023/05/17 08:38:23;;;;;;;8.00;2.90;;;;;;;28.69;28.96;100749.09;108158;1254;60417;-83
2023/05/17 08:40:54;;;;;;;5.30;2.70;;;;;;;28.69;29.01;100749.27;108099;1254;67311;-84
2023/05/17 08:43:21;;;;;;;4.80;2.50;;;;;;;28.68;28.50;100747.29;108135;1254;72495;-82
2023/05/17 08:45:51;;;;;;;4.50;2.70;;;;;;;28.70;28.28;100749.66;108152;1255;72720;-84
2023/05/17 08:48:19;;;;;;;5.50;2.90;;;;;;;28.77;28.22;100752.02;108088;1254;62665;-84
2023/05/17 08:50:46;;;;;;;5.90;2.60;;;;;;;28.86;28.01;100750.91;108127;1254;62303;-84
2023/05/17 08:53:14;;;;;;;5.70;2.80;;;;;;;28.91;27.60;100752.08;108135;1254;76265;-83
2023/05/17 08:55:44;;;;;;;5.30;3.00;;;;;;;28.91;27.43;100752.64;108154;1254;65136;-83
2023/05/17 08:58:11;;;;;;;140.50;11.30;;;;;;;28.92;27.29;100748.48;108154;1256;66636;-84
2023/05/17 09:00:38;;;;;;;49.40;7.10;;;;;;;28.96;27.76;100748.98;108092;1256;61000;-83
2023/05/17 09:03:05;;;;;;;27.00;4.00;;;;;;;29.05;27.78;100748.72;108151;1259;59365;-83
2023/05/17 09:05:32;;;;;;;47.10;4.00;;;;;;;29.13;27.32;100748.48;108141;1254;76026;-84
2023/05/17 09:07:59;;;;;;;24.90;7.10;;;;;;;29.15;26.66;100748.58;108099;1254;66204;-85
2023/05/17 09:10:29;;;;;;;11.80;4.70;;;;;;;29.15;26.47;100748.10;108074;1254;71763;-84
2023/05/17 09:12:56;;;;;;;12.70;5.20;;;;;;;29.18;26.16;100748.45;108162;1254;60733;-84
2023/05/17 09:15:25;;;;;;;12.60;5.00;;;;;;;29.22;25.67;100751.79;108146;1254;61929;-84
2023/05/17 09:17:53;;;;;;;39.20;15.50;;;;;;;29.22;25.56;100754.30;108216;1254;67465;-83
2023/05/17 09:20:24;;;;;;;21.50;8.00;;;;;;;29.25;26.51;100753.94;108043;1254;65955;-83
2023/05/17 09:22:52;;;;;;;25.50;10.20;;;;;;;29.34;26.25;100754.41;108133;1254;65172;-83
2023/05/17 09:25:20;;;;;;;39.50;14.70;;;;;;;29.42;26.67;100752.11;108201;1253;60549;-83
2023/05/17 09:27:47;;;;;;;15.10;6.90;;;;;;;29.51;26.53;100747.86;108278;1254;60296;-83
2023/05/17 09:30:14;;;;;;;9.50;4.30;;;;;;;29.61;26.34;100747.42;108149;1254;73055;-84
2023/05/17 09:32:45;;;;;;;8.90;4.20;;;;;;;29.64;25.83;100746.02;108173;1254;66146;-83
2023/05/17 09:35:12;;;;;;;14.10;6.00;;;;;;;29.70;25.73;100748.73;108080;1254;66237;-84
2023/05/17 09:37:39;;;;;;;7.10;3.70;;;;;;;29.82;25.58;100745.36;108146;1256;60297;-84
2023/05/17 09:40:09;;;;;;;7.90;3.70;;;;;;;29.98;24.98;100743.88;108115;1254;60351;-83
2023/05/17 09:42:38;;;;;;;6.10;3.30;;;;;;;30.11;24.70;100741.11;108262;1253;66371;-84
2023/05/17 09:45:05;;;;;;;4.80;3.20;;;;;;;30.19;24.55;100742.90;108151;1253;66214;-84
2023/05/17 09:47:36;;;;;;;5.90;2.70;;;;;;;30.28;24.19;100741.07;108317;1254;66190;-83
2023/05/17 09:50:05;;;;;;;6.10;3.90;;;;;;;30.33;24.10;100739.52;108263;1254;60573;-84
2023/05/17 09:52:34;;;;;;;9.20;4.30;;;;;;;30.30;23.76;100740.77;108243;1254;60297;-85
2023/05/17 09:55:01;;;;;;;5.90;3.00;;;;;;;30.44;23.37;100736.96;108233;1254;65859;-84
2023/05/17 09:57:36;;;;;;;4.30;2.40;;;;;;;30.57;23.32;100734.73;108120;1254;65034;-84
2023/05/17 10:00:12;;;;;;;4.70;2.50;;;;;;;30.67;23.17;100735.22;108205;1253;65923;-83
2023/05/17 10:02:42;;;;;;;3.80;2.20;;;;;;;30.81;22.90;100732.67;108161;1254;60871;-85
2023/05/17 10:05:11;;;;;;;6.40;2.00;;;;;;;30.93;22.86;100729.64;108223;1254;59573;-82
2023/05/17 10:07:39;;;;;;;4.70;2.20;;;;;;;31.00;22.38;100728.85;108227;1253;67176;-83
2023/05/17 10:10:07;;;;;;;4.30;2.30;;;;;;;31.03;22.59;100726.25;108129;1252;65147;-83
2023/05/17 10:12:34;;;;;;;4.40;2.60;;;;;;;31.06;22.76;100721.83;108134;1254;65330;-84
2023/05/17 10:15:01;;;;;;;4.50;2.20;;;;;;;31.28;22.28;100720.28;108106;1254;60339;-83
2023/05/17 10:17:28;;;;;;;5.40;2.10;;;;;;;31.31;22.40;100725.72;108314;1254;61016;-85
2023/05/17 10:19:56;;;;;;;3.70;1.90;;;;;;;31.18;22.79;100725.39;108112;1252;67488;-83
2023/05/17 10:22:24;;;;;;;4.30;2.00;;;;;;;31.10;22.82;100723.41;108167;1253;65075;-83
2023/05/17 10:24:51;;;;;;;5.80;2.20;;;;;;;31.05;22.59;100722.39;108169;1253;65115;-83
2023/05/17 10:27:18;;;;;;;6.30;2.50;;;;;;;30.96;22.47;100724.77;108217;1254;60411;-83
2023/05/17 10:29:45;;;;;;;3.40;2.10;;;;;;;31.05;22.21;100725.78;108000;1254;60366;-83
2023/05/17 10:32:16;;;;;;;4.70;2.70;;;;;;;31.05;22.26;100723.17;108258;1254;67441;-83
2023/05/17 10:34:43;;;;;;;7.10;2.80;;;;;;;31.09;22.44;100725.39;108140;1254;66029;-83
2023/05/17 10:37:17;;;;;;;5.30;2.60;;;;;;;31.09;22.83;100722.48;108229;1254;66085;-83
2023/05/17 10:39:45;;;;;;;5.20;2.40;;;;;;;31.05;22.76;100723.73;108105;1259;59660;-83
2023/05/17 10:42:12;;;;;;;3.50;2.00;;;;;;;30.97;22.92;100721.05;108255;1254;60552;-83
2023/05/17 10:44:43;;;;;;;5.30;2.20;;;;;;;30.87;23.05;100720.48;108084;1254;67325;-82
2023/05/17 10:47:10;;;;;;;4.10;2.10;;;;;;;30.78;23.50;100718.98;108126;1254;65257;-83
2023/05/17 10:49:40;;;;;;;8.90;4.00;;;;;;;30.72;24.44;100719.71;108217;1254;66081;-83
2023/05/17 10:52:12;;;;;;;7.40;2.90;;;;;;;30.64;24.88;100722.22;108215;1254;60443;-83
2023/05/17 10:54:42;;;;;;;;;;;;;;;30.48;25.07;100719.73;108224;1253;60812;-84
2023/05/17 10:57:18;;;;;;;5.20;2.50;;;;;;;30.24;25.42;100715.45;108243;1253;67369;-82
2023/05/17 10:59:55;;;;;;;4.40;2.40;;;;;;;30.00;25.49;100718.55;108144;1254;66183;-83
2023/05/17 11:02:22;;;;;;;4.20;2.40;;;;;;;29.80;25.43;100722.92;108181;1254;66462;-82
2023/05/17 11:04:54;;;;;;;4.50;2.50;;;;;;;29.55;25.41;100719.58;108124;1253;61237;-82
2023/05/17 11:07:30;;;;;;;4.00;2.50;;;;;;;29.35;25.65;100720.30;108102;1254;60338;-82
2023/05/17 11:10:11;;;;;;;5.20;2.50;;;;;;;29.16;26.33;100723.36;108112;1254;65999;-83
2023/05/17 11:12:46;;;;;;;4.20;2.60;;;;;;;28.98;26.90;100718.69;108142;1254;66251;-83
2023/05/17 11:15:14;;;;;;;8.70;3.50;;;;;;;28.81;27.07;100720.02;108153;1254;66298;-83
2023/05/17 11:17:55;;;;;;;21.20;8.40;;;;;;;28.68;27.80;100722.70;108259;1254;60584;-84
2023/05/17 11:20:23;;;;;;;15.90;6.30;;;;;;;28.63;28.34;100719.50;108241;1254;60476;-83
2023/05/17 11:23:01;;;;;;;11.00;4.60;;;;;;;28.61;28.63;100718.46;108239;1254;67034;-87
2023/05/17 11:25:31;;;;;;;11.40;4.40;;;;;;;28.57;28.00;100716.77;108257;1254;73352;-83
2023/05/17 11:27:58;;;;;;;11.20;4.80;;;;;;;28.59;28.13;100718.45;108203;1253;72566;-84
2023/05/17 11:30:27;;;;;;;6.50;3.70;;;;;;;28.62;27.90;100715.17;108093;1255;62496;-84
2023/05/17 11:33:05;;;;;;;6.30;3.50;;;;;;;28.59;28.11;100715.07;108173;1254;60493;-83
2023/05/17 11:35:46;;;;;;;19.70;7.30;;;;;;;28.57;28.81;100716.30;108201;1254;74859;-86